createdAt,value
2019-05-12T00:01:04.090Z,16.67
2019-05-12T00:02:08.858Z,15.68
2019-05-12T00:03:14.067Z,16.07
2019-05-12T00:04:19.041Z,16.17
2019-05-12T00:05:24.196Z,14.95
2019-05-12T00:06:29.014Z,16.15
2019-05-12T00:07:34.206Z,15.08
2019-05-12T00:08:39.118Z,13.75
2019-05-12T00:09:44.249Z,15.13
2019-05-12T00:10:49.031Z,15.15
2019-05-12T00:11:54.208Z,15.53
2019-05-12T00:12:59.005Z,14.98
2019-05-12T00:14:04.187Z,14.63
2019-05-12T00:15:09.268Z,14.75
2019-05-12T00:16:14.401Z,15.58
2019-05-12T00:17:19.173Z,13.48
2019-05-12T00:18:24.319Z,14.25
2019-05-12T00:19:29.117Z,14.05
2019-05-12T00:20:34.358Z,12.60
2019-05-12T00:21:39.919Z,11.57
2019-05-12T00:22:48.806Z,11.18
2019-05-12T00:24:12.534Z,11.80
2019-05-12T00:25:18.233Z,11.18
2019-05-12T00:26:23.237Z,10.25
2019-05-12T00:27:28.644Z,10.75
2019-05-12T00:28:33.436Z,9.88
2019-05-12T00:29:38.731Z,10.25
2019-05-12T00:30:48.753Z,9.80
2019-05-12T00:31:53.954Z,10.05
2019-05-12T00:32:58.743Z,9.30
2019-05-12T00:34:03.890Z,10.23
2019-05-12T00:35:08.701Z,9.68
2019-05-12T00:36:13.862Z,9.73
2019-05-12T00:37:18.734Z,9.35
2019-05-12T00:38:24.060Z,8.48
2019-05-12T00:39:28.948Z,8.85
2019-05-12T00:40:34.292Z,8.95
2019-05-12T00:41:39.203Z,9.70
2019-05-12T00:42:44.414Z,8.70
2019-05-12T00:43:49.196Z,8.18
2019-05-12T00:44:54.348Z,8.83
2019-05-12T00:45:59.068Z,8.48
2019-05-12T00:47:04.342Z,8.45
2019-05-12T00:48:09.733Z,8.55
2019-05-12T00:49:15.004Z,9.40
2019-05-12T00:50:19.899Z,7.62
2019-05-12T00:51:25.060Z,7.60
2019-05-12T00:52:31.028Z,8.00
2019-05-12T00:53:40.879Z,7.72
2019-05-12T00:54:42.620Z,7.87
2019-05-12T00:55:47.778Z,7.85
2019-05-12T00:56:52.527Z,7.35
2019-05-12T00:57:58.312Z,7.45
2019-05-12T00:59:03.137Z,7.17
2019-05-12T01:00:08.888Z,8.00
2019-05-12T01:01:13.867Z,7.65
2019-05-12T01:02:19.032Z,7.97
2019-05-12T01:03:23.778Z,7.33
2019-05-12T01:04:29.285Z,7.53
2019-05-12T01:05:34.337Z,7.30
2019-05-12T01:06:39.454Z,7.37
2019-05-12T01:07:44.244Z,8.05
2019-05-12T01:08:49.387Z,7.28
2019-05-12T01:09:54.167Z,7.87
2019-05-12T01:10:59.440Z,7.45
2019-05-12T01:12:04.179Z,7.40
2019-05-12T01:13:09.342Z,7.67
2019-05-12T01:14:14.224Z,7.92
2019-05-12T01:15:19.616Z,7.45
2019-05-12T01:16:24.408Z,8.25
2019-05-12T01:17:29.569Z,8.25
2019-05-12T01:18:34.572Z,8.73
2019-05-12T01:19:40.515Z,7.90
2019-05-12T01:20:47.770Z,8.33
2019-05-12T01:21:52.161Z,7.72
2019-05-12T01:22:57.911Z,7.62
2019-05-12T01:24:03.651Z,7.58
2019-05-12T01:25:08.941Z,7.03
2019-05-12T01:26:14.185Z,7.42
2019-05-12T01:27:18.961Z,6.97
2019-05-12T01:28:24.135Z,6.90
2019-05-12T01:29:29.072Z,7.40
2019-05-12T01:30:34.288Z,6.75
2019-05-12T01:31:48.481Z,6.35
2019-05-12T01:32:52.844Z,6.55
2019-05-12T01:33:58.621Z,6.97
2019-05-12T01:35:04.304Z,7.35
2019-05-12T01:36:09.165Z,6.83
2019-05-12T01:37:23.443Z,6.72
2019-05-12T01:38:28.726Z,6.83
2019-05-12T01:39:34.110Z,7.37
2019-05-12T01:40:39.751Z,6.87
2019-05-12T01:41:45.112Z,7.12
2019-05-12T01:42:49.892Z,7.03
2019-05-12T01:43:55.043Z,6.78
2019-05-12T01:44:59.981Z,7.15
2019-05-12T01:46:05.132Z,6.85
2019-05-12T01:47:09.969Z,6.78
2019-05-12T01:48:15.333Z,6.70
2019-05-12T01:49:20.333Z,6.95
2019-05-12T01:50:25.524Z,7.15
2019-05-12T01:51:30.312Z,6.87
2019-05-12T01:52:35.474Z,6.95
2019-05-12T01:53:40.232Z,7.22
2019-05-12T01:54:45.397Z,6.30
2019-05-12T01:55:50.292Z,7.22
2019-05-12T01:56:55.558Z,7.12
2019-05-12T01:58:00.365Z,6.30
2019-05-12T01:59:07.937Z,6.08
2019-05-12T02:00:13.468Z,7.05
2019-05-12T02:01:18.647Z,5.90
2019-05-12T02:02:23.414Z,6.35
2019-05-12T02:03:28.609Z,6.20
2019-05-12T02:04:49.163Z,6.60
2019-05-12T02:05:54.909Z,6.53
2019-05-12T02:07:01.928Z,7.25
2019-05-12T02:08:10.868Z,7.30
2019-05-12T02:09:18.687Z,7.08
2019-05-12T02:10:24.056Z,7.28
2019-05-12T02:11:35.280Z,7.65
2019-05-12T02:12:40.039Z,7.12
2019-05-12T02:13:45.155Z,7.55
2019-05-12T02:14:50.096Z,7.58
2019-05-12T02:15:55.292Z,6.97
2019-05-12T02:17:01.106Z,8.53
2019-05-12T02:18:06.275Z,6.62
2019-05-12T02:19:12.668Z,6.85
2019-05-12T02:20:18.465Z,7.37
2019-05-12T02:21:23.320Z,6.55
2019-05-12T02:22:28.536Z,7.47
2019-05-12T02:23:33.307Z,7.33
2019-05-12T02:24:39.059Z,6.58
2019-05-12T02:25:44.028Z,6.12
2019-05-12T02:26:49.134Z,6.55
2019-05-12T02:27:53.936Z,5.72
2019-05-12T02:28:59.096Z,6.50
2019-05-12T02:30:04.156Z,6.40
2019-05-12T02:31:09.757Z,5.80
2019-05-12T02:32:14.693Z,6.17
2019-05-12T02:33:19.989Z,5.83
2019-05-12T02:34:25.538Z,6.22
2019-05-12T02:35:31.045Z,5.70
2019-05-12T02:36:35.896Z,5.90
2019-05-12T02:37:44.856Z,5.40
2019-05-12T02:38:47.488Z,6.90
2019-05-12T02:39:55.470Z,5.60
2019-05-12T02:40:59.144Z,6.08
2019-05-12T02:42:05.128Z,5.70
2019-05-12T02:43:10.136Z,6.17
2019-05-12T02:44:15.364Z,6.00
2019-05-12T02:45:20.353Z,5.28
2019-05-12T02:46:25.853Z,5.20
2019-05-12T02:47:30.778Z,5.62
2019-05-12T02:48:35.936Z,5.67
2019-05-12T02:49:40.669Z,5.37
2019-05-12T02:50:46.077Z,5.92
2019-05-12T02:51:50.920Z,5.37
2019-05-12T02:52:57.553Z,5.67
2019-05-12T02:54:05.167Z,5.33
2019-05-12T02:55:10.273Z,5.40
2019-05-12T02:56:16.457Z,5.67
2019-05-12T02:57:25.240Z,4.83
2019-05-12T02:58:30.567Z,5.10
2019-05-12T02:59:37.849Z,5.70
2019-05-12T03:00:45.526Z,5.58
2019-05-12T03:01:55.058Z,5.37
2019-05-12T03:03:01.385Z,5.72
2019-05-12T03:04:06.669Z,4.95
2019-05-12T03:05:14.615Z,5.15
2019-05-12T03:06:25.282Z,5.85
2019-05-12T03:07:34.405Z,6.05
2019-05-12T03:08:38.483Z,5.95
2019-05-12T03:09:44.688Z,5.33
2019-05-12T03:10:54.643Z,4.97
2019-05-12T03:12:00.929Z,5.25
2019-05-12T03:13:06.053Z,4.87
2019-05-12T03:14:10.861Z,5.42
2019-05-12T03:15:16.011Z,5.60
2019-05-12T03:16:20.789Z,5.08
2019-05-12T03:17:25.917Z,5.65
2019-05-12T03:18:30.661Z,7.42
2019-05-12T03:19:35.839Z,9.00
2019-05-12T03:20:40.600Z,7.35
2019-05-12T03:21:45.776Z,9.20
2019-05-12T03:22:50.506Z,11.53
2019-05-12T03:23:55.636Z,8.43
2019-05-12T03:25:11.318Z,9.45
2019-05-12T03:26:07.282Z,8.18
2019-05-12T03:27:17.215Z,7.53
2019-05-12T03:28:19.108Z,5.28
2019-05-12T03:29:25.119Z,5.50
2019-05-12T03:30:30.544Z,5.53
2019-05-12T03:31:39.650Z,4.95
2019-05-12T03:32:47.315Z,4.78
2019-05-12T03:33:52.519Z,5.03
2019-05-12T03:34:58.013Z,5.75
2019-05-12T03:36:07.982Z,5.00
2019-05-12T03:37:09.023Z,4.83
2019-05-12T03:38:15.041Z,5.03
2019-05-12T03:39:20.561Z,5.03
2019-05-12T03:40:25.433Z,4.58
2019-05-12T03:41:30.512Z,4.15
2019-05-12T03:42:35.581Z,5.15
2019-05-12T03:43:40.797Z,4.62
2019-05-12T03:44:45.692Z,4.42
2019-05-12T03:45:55.859Z,5.15
2019-05-12T03:46:59.728Z,5.00
2019-05-12T03:48:05.118Z,5.00
2019-05-12T03:49:09.930Z,4.72
2019-05-12T03:50:15.176Z,4.95
2019-05-12T03:51:19.977Z,4.90
2019-05-12T03:52:25.165Z,4.37
2019-05-12T03:53:30.277Z,4.60
2019-05-12T03:54:35.429Z,4.95
2019-05-12T03:55:45.541Z,4.50
2019-05-12T03:56:48.573Z,4.45
2019-05-12T03:57:55.121Z,4.12
2019-05-12T03:59:04.784Z,5.17
2019-05-12T04:00:09.026Z,4.65
2019-05-12T04:01:14.987Z,5.10
2019-05-12T04:02:20.230Z,4.80
2019-05-12T04:03:25.437Z,5.15
2019-05-12T04:04:30.205Z,5.25
2019-05-12T04:05:35.773Z,4.60
2019-05-12T04:06:40.578Z,4.80
2019-05-12T04:07:45.806Z,4.50
2019-05-12T04:08:50.690Z,4.55
2019-05-12T04:09:55.849Z,5.15
2019-05-12T04:11:00.693Z,4.67
2019-05-12T04:12:05.864Z,4.67
2019-05-12T04:13:10.657Z,4.95
2019-05-12T04:14:15.814Z,4.97
2019-05-12T04:15:20.815Z,4.28
2019-05-12T04:16:26.336Z,4.05
2019-05-12T04:17:31.116Z,4.87
2019-05-12T04:18:36.363Z,4.10
2019-05-12T04:19:41.192Z,4.55
2019-05-12T04:20:46.477Z,5.25
2019-05-12T04:21:54.569Z,4.22
2019-05-12T04:22:58.068Z,4.20
2019-05-12T04:24:05.420Z,4.70
2019-05-12T04:25:09.882Z,4.60
2019-05-12T04:26:16.920Z,4.53
2019-05-12T04:27:24.865Z,3.80
2019-05-12T04:28:28.352Z,4.58
2019-05-12T04:29:34.895Z,4.40
2019-05-12T04:30:40.220Z,4.33
2019-05-12T04:31:45.544Z,4.50
2019-05-12T04:32:50.508Z,4.65
2019-05-12T04:33:55.849Z,4.15
2019-05-12T04:35:04.533Z,3.85
2019-05-12T04:36:07.796Z,4.47
2019-05-12T04:37:14.873Z,4.83
2019-05-12T04:38:19.782Z,4.33
2019-05-12T04:39:25.365Z,4.20
2019-05-12T04:40:30.674Z,4.15
2019-05-12T04:41:35.961Z,4.55
2019-05-12T04:42:44.881Z,4.10
2019-05-12T04:43:48.134Z,4.10
2019-05-12T04:44:55.278Z,4.35
2019-05-12T04:45:59.937Z,4.00
2019-05-12T04:47:05.669Z,4.30
2019-05-12T04:48:10.823Z,4.08
2019-05-12T04:49:16.085Z,4.17
2019-05-12T04:50:24.259Z,3.72
2019-05-12T04:51:28.008Z,3.75
2019-05-12T04:52:35.179Z,3.85
2019-05-12T04:53:39.830Z,3.70
2019-05-12T04:54:44.890Z,4.45
2019-05-12T04:56:05.925Z,4.25
2019-05-12T04:56:56.610Z,4.60
2019-05-12T04:58:04.389Z,3.60
2019-05-12T04:59:08.452Z,4.03
2019-05-12T05:00:15.921Z,3.75
2019-05-12T05:01:20.534Z,4.10
2019-05-12T05:02:25.681Z,3.65
2019-05-12T05:03:30.708Z,3.52
2019-05-12T05:04:36.029Z,3.60
2019-05-12T05:05:43.771Z,3.75
2019-05-12T05:06:47.891Z,3.47
2019-05-12T05:07:54.825Z,3.85
2019-05-12T05:08:59.756Z,3.50
2019-05-12T05:10:04.860Z,3.77
2019-05-12T05:11:10.133Z,3.65
2019-05-12T05:12:15.232Z,3.33
2019-05-12T05:13:20.539Z,4.10
2019-05-12T05:14:25.722Z,3.15
2019-05-12T05:15:34.330Z,3.42
2019-05-12T05:16:37.880Z,3.42
2019-05-12T05:17:44.082Z,2.95
2019-05-12T05:18:49.337Z,3.10
2019-05-12T05:19:54.506Z,3.47
2019-05-12T05:20:59.589Z,4.05
2019-05-12T05:22:04.938Z,4.15
2019-05-12T05:23:10.097Z,4.08
2019-05-12T05:24:15.283Z,3.92
2019-05-12T05:25:20.343Z,4.95
2019-05-12T05:26:28.302Z,3.85
2019-05-12T05:27:34.050Z,3.92
2019-05-12T05:28:39.148Z,3.75
2019-05-12T05:29:44.175Z,3.50
2019-05-12T05:30:49.310Z,3.47
2019-05-12T05:31:54.524Z,3.80
2019-05-12T05:32:59.911Z,3.55
2019-05-12T05:34:05.180Z,3.70
2019-05-12T05:35:14.156Z,3.95
2019-05-12T05:36:19.966Z,4.37
2019-05-12T05:37:25.464Z,16.35
2019-05-12T05:38:30.463Z,6.83
2019-05-12T05:39:47.901Z,5.53
2019-05-12T05:40:43.503Z,6.05
2019-05-12T05:41:51.155Z,5.97
2019-05-12T05:42:56.063Z,3.52
2019-05-12T05:44:03.113Z,3.52
2019-05-12T05:45:09.798Z,8.33
2019-05-12T05:46:16.046Z,8.18
2019-05-12T05:47:25.632Z,5.65
2019-05-12T05:48:27.897Z,3.50
2019-05-12T05:49:34.213Z,3.70
2019-05-12T05:50:39.688Z,4.78
2019-05-12T05:51:48.365Z,5.22
2019-05-12T05:52:51.618Z,3.90
2019-05-12T05:53:56.684Z,3.30
2019-05-12T05:55:05.929Z,3.10
2019-05-12T05:56:08.599Z,8.55
2019-05-12T05:57:14.313Z,38.75
2019-05-12T05:58:19.535Z,24.07
2019-05-12T05:59:31.304Z,11.00
2019-05-12T06:00:34.083Z,13.18
2019-05-12T06:01:40.200Z,25.85
2019-05-12T06:02:45.434Z,8.70
2019-05-12T06:03:50.779Z,5.53
2019-05-12T06:04:56.387Z,5.30
2019-05-12T06:06:10.435Z,6.72
2019-05-12T06:07:08.995Z,4.15
2019-05-12T06:08:16.189Z,4.30
2019-05-12T06:09:23.448Z,3.37
2019-05-12T06:10:35.219Z,3.05
2019-05-12T06:11:35.085Z,3.50
2019-05-12T06:12:45.556Z,2.92
2019-05-12T06:13:47.181Z,3.33
2019-05-12T06:14:57.894Z,3.17
2019-05-12T06:15:59.296Z,2.98
2019-05-12T06:17:04.578Z,3.10
2019-05-12T06:18:09.898Z,3.00
2019-05-12T06:19:15.096Z,2.77
2019-05-12T06:20:20.257Z,2.70
2019-05-12T06:21:29.110Z,2.80
2019-05-12T06:22:34.329Z,2.67
2019-05-12T06:23:39.369Z,3.00
2019-05-12T06:24:44.309Z,2.77
2019-05-12T06:25:51.591Z,2.62
2019-05-12T06:27:00.680Z,2.70
2019-05-12T06:28:06.391Z,2.90
2019-05-12T06:29:11.375Z,2.72
2019-05-12T06:30:17.874Z,2.70
2019-05-12T06:31:25.261Z,3.23
2019-05-12T06:32:29.946Z,2.83
2019-05-12T06:33:36.313Z,2.72
2019-05-12T06:34:43.542Z,2.80
2019-05-12T06:35:48.520Z,2.70
2019-05-12T06:36:57.034Z,2.80
2019-05-12T06:38:01.813Z,2.40
2019-05-12T06:39:10.555Z,2.80
2019-05-12T06:40:15.618Z,3.23
2019-05-12T06:41:23.641Z,2.73
2019-05-12T06:42:27.685Z,2.80
2019-05-12T06:43:36.173Z,2.67
2019-05-12T06:44:39.645Z,2.73
2019-05-12T06:45:45.664Z,3.03
2019-05-12T06:46:53.463Z,2.93
2019-05-12T06:47:57.868Z,3.27
2019-05-12T06:49:10.136Z,3.03
2019-05-12T06:50:09.694Z,2.87
2019-05-12T06:51:22.148Z,3.80
2019-05-12T06:52:23.515Z,2.90
2019-05-12T06:53:30.944Z,2.90
2019-05-12T06:54:34.956Z,2.97
2019-05-12T06:55:40.033Z,5.03
2019-05-12T06:56:49.728Z,3.00
2019-05-12T06:57:53.919Z,3.07
2019-05-12T06:59:01.022Z,2.97
2019-05-12T07:00:06.174Z,3.13
2019-05-12T07:01:18.409Z,9.30
2019-05-12T07:02:18.075Z,4.50
2019-05-12T07:03:26.151Z,5.07
2019-05-12T07:04:30.001Z,12.17
2019-05-12T07:05:38.454Z,26.63
2019-05-12T07:06:44.103Z,20.87
2019-05-12T07:07:49.877Z,15.60
2019-05-12T07:09:03.530Z,9.67
2019-05-12T07:10:11.768Z,10.60
2019-05-12T07:11:09.323Z,5.53
2019-05-12T07:12:14.771Z,5.67
2019-05-12T07:13:22.998Z,4.00
2019-05-12T07:14:27.389Z,4.10
2019-05-12T07:15:35.588Z,4.80
2019-05-12T07:16:39.966Z,4.40
2019-05-12T07:18:07.175Z,4.13
2019-05-12T07:19:17.410Z,3.93
2019-05-12T07:20:19.726Z,3.83
2019-05-12T07:21:27.313Z,3.40
2019-05-12T07:22:43.735Z,2.87
2019-05-12T07:23:39.171Z,2.80
2019-05-12T07:24:50.235Z,3.17
2019-05-12T07:25:51.469Z,3.03
2019-05-12T07:27:04.015Z,2.70
2019-05-12T07:28:08.010Z,2.67
2019-05-12T07:29:13.298Z,3.73
2019-05-12T07:30:25.281Z,3.97
2019-05-12T07:31:30.692Z,3.80
2019-05-12T07:32:36.749Z,4.47
2019-05-12T07:33:43.365Z,7.93
2019-05-12T07:34:49.096Z,26.07
2019-05-12T07:36:01.209Z,35.00
2019-05-12T07:37:04.415Z,8.60
2019-05-12T07:38:12.016Z,6.83
2019-05-12T07:39:20.068Z,6.10
2019-05-12T07:40:30.117Z,5.30
2019-05-12T07:41:35.075Z,4.07
2019-05-12T07:42:40.426Z,3.60
2019-05-12T07:43:50.493Z,3.70
2019-05-12T07:44:57.996Z,3.93
2019-05-12T07:46:07.045Z,3.03
2019-05-12T07:47:13.755Z,2.50
2019-05-12T07:48:19.214Z,2.70
2019-05-12T07:49:34.228Z,2.73
2019-05-12T07:50:35.049Z,2.30
2019-05-12T07:51:40.761Z,2.37
2019-05-12T07:52:46.610Z,2.53
2019-05-12T07:53:55.210Z,2.57
2019-05-12T07:54:59.264Z,2.10
2019-05-12T07:56:04.678Z,2.80
2019-05-12T07:57:12.239Z,2.40
2019-05-12T07:58:19.220Z,2.37
2019-05-12T07:59:28.259Z,2.50
2019-05-12T08:00:30.650Z,2.10
2019-05-12T08:01:48.161Z,2.73
2019-05-12T08:02:44.396Z,2.40
2019-05-12T08:03:50.978Z,2.20
2019-05-12T08:04:56.586Z,2.30
2019-05-12T08:06:04.475Z,2.40
2019-05-12T08:07:09.139Z,2.70
2019-05-12T08:08:15.020Z,3.50
2019-05-12T08:09:24.031Z,3.57
2019-05-12T08:10:27.872Z,3.73
2019-05-12T08:11:36.719Z,3.07
2019-05-12T08:12:40.233Z,3.20
2019-05-12T08:13:45.490Z,2.30
2019-05-12T08:14:54.061Z,2.80
2019-05-12T08:15:59.225Z,2.70
2019-05-12T08:17:11.226Z,3.03
2019-05-12T08:18:13.862Z,2.40
2019-05-12T08:19:24.294Z,2.60
2019-05-12T08:20:26.415Z,2.50
2019-05-12T08:21:43.617Z,2.50
2019-05-12T08:22:46.476Z,2.50
2019-05-12T08:23:54.698Z,2.63
2019-05-12T08:25:05.694Z,2.53
2019-05-12T08:26:13.558Z,2.60
2019-05-12T08:27:18.534Z,2.90
2019-05-12T08:28:34.881Z,2.30
2019-05-12T08:29:30.938Z,2.20
2019-05-12T08:30:47.318Z,2.10
2019-05-12T08:31:45.804Z,2.50
2019-05-12T08:32:56.307Z,2.40
2019-05-12T08:33:57.680Z,3.10
2019-05-12T08:35:05.092Z,2.30
2019-05-12T08:36:11.998Z,2.20
2019-05-12T08:37:17.604Z,2.87
2019-05-12T08:38:24.897Z,2.40
2019-05-12T08:39:29.913Z,2.90
2019-05-12T08:40:39.785Z,2.70
2019-05-12T08:41:44.260Z,2.93
2019-05-12T08:42:48.734Z,2.37
2019-05-12T08:43:58.212Z,2.50
2019-05-12T08:45:03.878Z,2.83
2019-05-12T08:46:12.187Z,3.13
2019-05-12T08:47:15.338Z,3.30
2019-05-12T08:48:22.332Z,3.63
2019-05-12T08:49:34.014Z,3.30
2019-05-12T08:50:36.150Z,3.17
2019-05-12T08:51:44.133Z,2.60
2019-05-12T08:52:48.933Z,2.80
2019-05-12T08:54:02.625Z,2.53
2019-05-12T08:55:04.103Z,2.73
2019-05-12T08:56:13.317Z,2.00
2019-05-12T08:57:16.408Z,2.40
2019-05-12T08:58:31.442Z,2.17
2019-05-12T08:59:28.608Z,2.30
2019-05-12T09:00:39.466Z,2.20
2019-05-12T09:01:45.242Z,3.07
2019-05-12T09:02:50.780Z,3.23
2019-05-12T09:04:00.242Z,2.67
2019-05-12T09:05:04.645Z,2.27
2019-05-12T09:06:15.433Z,2.10
2019-05-12T09:07:18.638Z,2.47
2019-05-12T09:08:24.948Z,2.57
2019-05-12T09:09:30.442Z,2.67
2019-05-12T09:10:36.270Z,2.60
2019-05-12T09:11:43.887Z,2.30
2019-05-12T09:12:49.267Z,3.00
2019-05-12T09:14:00.560Z,2.93
2019-05-12T09:15:04.316Z,2.67
2019-05-12T09:16:09.825Z,2.40
2019-05-12T09:17:17.557Z,2.93
2019-05-12T09:18:28.371Z,2.47
2019-05-12T09:19:29.931Z,2.23
2019-05-12T09:20:40.036Z,2.00
2019-05-12T09:21:44.219Z,2.00
2019-05-12T09:22:52.757Z,2.30
2019-05-12T09:23:57.218Z,1.90
2019-05-12T09:25:06.398Z,2.57
2019-05-12T09:26:10.184Z,3.07
2019-05-12T09:27:15.805Z,3.73
2019-05-12T09:28:21.199Z,2.87
2019-05-12T09:29:26.365Z,2.90
2019-05-12T09:30:33.717Z,3.10
2019-05-12T09:31:39.605Z,2.60
2019-05-12T09:32:49.921Z,2.67
2019-05-12T09:33:54.545Z,2.40
2019-05-12T09:34:59.485Z,2.37
2019-05-12T09:36:05.163Z,2.53
2019-05-12T09:37:10.743Z,2.50
2019-05-12T09:38:21.301Z,2.67
2019-05-12T09:39:23.985Z,2.90
2019-05-12T09:40:29.843Z,2.40
2019-05-12T09:41:42.316Z,2.73
2019-05-12T09:42:44.105Z,2.60
2019-05-12T09:43:50.529Z,2.73
2019-05-12T09:45:00.124Z,2.80
2019-05-12T09:46:04.166Z,2.40
2019-05-12T09:47:21.955Z,2.63
2019-05-12T09:48:17.253Z,2.90
2019-05-12T09:49:31.396Z,2.50
2019-05-12T09:50:30.413Z,2.07
2019-05-12T09:51:41.417Z,2.30
2019-05-12T09:52:44.172Z,1.90
2019-05-12T09:53:51.088Z,2.00
2019-05-12T09:54:56.242Z,2.10
2019-05-12T09:56:01.290Z,2.17
2019-05-12T09:57:06.628Z,1.80
2019-05-12T09:58:14.153Z,2.43
2019-05-12T09:59:22.920Z,2.43
2019-05-12T10:00:30.387Z,2.53
2019-05-12T10:01:35.321Z,2.10
2019-05-12T10:02:39.116Z,2.17
2019-05-12T10:03:44.354Z,2.10
2019-05-12T10:04:50.255Z,2.13
2019-05-12T10:05:56.195Z,2.30
2019-05-12T10:07:01.200Z,3.17
2019-05-12T10:08:06.583Z,1.93
2019-05-12T10:09:15.381Z,7.03
2019-05-12T10:10:18.763Z,8.50
2019-05-12T10:11:23.822Z,3.67
2019-05-12T10:12:29.892Z,1.90
2019-05-12T10:13:35.154Z,2.23
2019-05-12T10:14:40.744Z,2.40
2019-05-12T10:15:46.953Z,2.13
2019-05-12T10:16:52.221Z,2.47
2019-05-12T10:18:00.179Z,2.10
2019-05-12T10:19:04.279Z,4.70
2019-05-12T10:20:10.068Z,12.73
2019-05-12T10:21:17.415Z,8.00
2019-05-12T10:22:23.583Z,4.03
2019-05-12T10:23:29.012Z,6.00
2019-05-12T10:24:41.579Z,6.73
2019-05-12T10:25:41.005Z,3.60
2019-05-12T10:26:49.301Z,5.07
2019-05-12T10:27:53.236Z,7.83
2019-05-12T10:28:59.821Z,6.13
2019-05-12T10:30:12.123Z,6.27
2019-05-12T10:31:13.849Z,4.30
2019-05-12T10:32:19.440Z,3.33
2019-05-12T10:33:24.492Z,2.57
2019-05-12T10:34:38.093Z,2.20
2019-05-12T10:35:36.624Z,2.37
2019-05-12T10:36:44.883Z,2.73
2019-05-12T10:37:48.835Z,2.00
2019-05-12T10:38:54.071Z,3.37
2019-05-12T10:39:59.009Z,2.73
2019-05-12T10:41:04.410Z,1.80
2019-05-12T10:42:09.645Z,4.17
2019-05-12T10:43:14.937Z,3.60
2019-05-12T10:44:19.949Z,4.93
2019-05-12T10:45:27.551Z,4.97
2019-05-12T10:46:32.494Z,3.77
2019-05-12T10:47:37.681Z,2.97
2019-05-12T10:48:44.339Z,2.30
2019-05-12T10:49:49.675Z,2.67
2019-05-12T10:50:54.654Z,2.13
2019-05-12T10:51:59.853Z,2.00
2019-05-12T10:53:09.961Z,1.87
2019-05-12T10:54:15.037Z,2.10
2019-05-12T10:55:18.869Z,2.30
2019-05-12T10:56:24.232Z,2.10
2019-05-12T10:57:29.393Z,2.97
2019-05-12T10:58:34.616Z,3.37
2019-05-12T10:59:45.143Z,3.27
2019-05-12T11:00:46.646Z,4.70
2019-05-12T11:01:53.966Z,5.33
2019-05-12T11:03:01.486Z,4.47
2019-05-12T11:04:05.597Z,3.43
2019-05-12T11:05:12.423Z,3.57
2019-05-12T11:06:17.529Z,2.70
2019-05-12T11:07:22.898Z,2.87
2019-05-12T11:08:29.433Z,2.93
2019-05-12T11:09:34.764Z,2.80
2019-05-12T11:10:39.841Z,2.67
2019-05-12T11:11:46.899Z,3.10
2019-05-12T11:12:51.991Z,2.40
2019-05-12T11:13:57.431Z,2.60
2019-05-12T11:15:06.912Z,2.80
2019-05-12T11:16:09.650Z,3.30
2019-05-12T11:17:15.209Z,3.53
2019-05-12T11:18:26.004Z,2.40
2019-05-12T11:19:28.637Z,2.47
2019-05-12T11:20:34.477Z,2.13
2019-05-12T11:21:39.870Z,1.90
2019-05-12T11:22:45.161Z,2.63
2019-05-12T11:23:50.170Z,2.30
2019-05-12T11:24:55.950Z,2.97
2019-05-12T11:26:01.066Z,2.40
2019-05-12T11:27:06.449Z,2.83
2019-05-12T11:28:13.870Z,2.73
2019-05-12T11:29:18.518Z,2.20
2019-05-12T11:30:23.889Z,2.73
2019-05-12T11:31:29.138Z,2.93
2019-05-12T11:32:37.809Z,2.77
2019-05-12T11:33:43.463Z,2.60
2019-05-12T11:34:47.849Z,2.23
2019-05-12T11:35:54.216Z,2.63
2019-05-12T11:36:59.598Z,2.40
2019-05-12T11:38:04.960Z,2.70
2019-05-12T11:39:10.247Z,2.83
2019-05-12T11:40:15.708Z,2.60
2019-05-12T11:41:21.369Z,2.53
2019-05-12T11:42:26.711Z,2.57
2019-05-12T11:43:33.777Z,2.73
2019-05-12T11:44:38.921Z,2.43
2019-05-12T11:45:44.307Z,2.30
2019-05-12T11:46:49.824Z,2.67
2019-05-12T11:47:56.933Z,2.37
2019-05-12T11:49:04.271Z,2.67
2019-05-12T11:50:09.991Z,2.83
2019-05-12T11:51:15.650Z,2.60
2019-05-12T11:52:20.797Z,2.93
2019-05-12T11:53:31.011Z,3.63
2019-05-12T11:54:33.517Z,3.07
2019-05-12T11:55:38.903Z,3.13
2019-05-12T11:56:46.624Z,3.63
2019-05-12T11:57:50.868Z,4.03
2019-05-12T11:58:55.908Z,3.70
2019-05-12T12:00:02.341Z,4.10
2019-05-12T12:01:09.625Z,3.67
2019-05-12T12:02:14.819Z,3.27
2019-05-12T12:03:19.776Z,2.87
2019-05-12T12:04:27.197Z,2.37
2019-05-12T12:05:33.875Z,2.20
2019-05-12T12:06:39.355Z,1.63
2019-05-12T12:07:50.570Z,1.83
2019-05-12T12:08:53.534Z,2.23
2019-05-12T12:09:59.577Z,1.80
2019-05-12T12:11:05.006Z,2.57
2019-05-12T12:12:09.862Z,1.20
2019-05-12T12:13:19.379Z,1.27
2019-05-12T12:15:07.936Z,1.40
2019-05-12T12:16:14.136Z,1.70
2019-05-12T12:17:22.887Z,1.60
2019-05-12T12:18:26.154Z,1.10
2019-05-12T12:19:37.721Z,1.17
2019-05-12T12:20:38.039Z,1.13
2019-05-12T12:21:47.993Z,1.23
2019-05-12T12:22:50.045Z,2.37
2019-05-12T12:23:54.968Z,3.87
2019-05-12T12:25:04.629Z,3.63
2019-05-12T12:26:06.954Z,2.20
2019-05-12T12:27:14.215Z,1.50
2019-05-12T12:28:21.115Z,2.23
2019-05-12T12:29:26.692Z,2.63
2019-05-12T12:30:33.690Z,2.10
2019-05-12T12:31:49.519Z,2.93
2019-05-12T12:32:57.190Z,2.30
2019-05-12T12:34:03.186Z,2.30
2019-05-12T12:35:11.074Z,2.27
2019-05-12T12:36:15.721Z,1.50
2019-05-12T12:37:24.057Z,1.63
2019-05-12T12:38:27.836Z,1.30
2019-05-12T12:39:33.372Z,1.20
2019-05-12T12:40:39.051Z,1.30
2019-05-12T12:41:55.307Z,1.47
2019-05-12T12:42:53.690Z,1.50
2019-05-12T12:43:57.980Z,1.70
2019-05-12T12:45:15.192Z,2.10
2019-05-12T12:46:28.280Z,2.13
2019-05-12T12:47:35.922Z,2.20
2019-05-12T12:48:40.279Z,2.80
2019-05-12T12:49:49.240Z,2.30
2019-05-12T12:50:53.439Z,1.90
2019-05-12T12:52:00.185Z,2.00
2019-05-12T12:53:05.146Z,2.20
2019-05-12T12:54:10.709Z,1.90
2019-05-12T12:55:15.582Z,2.10
2019-05-12T12:56:27.734Z,2.10
2019-05-12T12:57:27.699Z,1.97
2019-05-12T12:58:34.581Z,2.13
2019-05-12T12:59:42.918Z,2.53
2019-05-12T13:00:49.649Z,2.07
2019-05-12T13:01:53.358Z,1.60
2019-05-12T13:02:58.780Z,1.60
2019-05-12T13:04:06.395Z,1.30
2019-05-12T13:05:10.844Z,1.50
2019-05-12T13:06:17.412Z,1.50
2019-05-12T13:07:24.158Z,1.80
2019-05-12T13:08:29.245Z,1.90
2019-05-12T13:09:34.768Z,2.00
2019-05-12T13:10:40.660Z,1.80
2019-05-12T13:11:46.765Z,1.60
2019-05-12T13:12:56.601Z,2.50
2019-05-12T13:13:58.638Z,2.67
2019-05-12T13:15:03.933Z,3.47
2019-05-12T13:16:09.591Z,2.90
2019-05-12T13:17:14.476Z,3.47
2019-05-12T13:18:25.809Z,3.30
2019-05-12T13:19:26.461Z,2.47
2019-05-12T13:20:34.288Z,2.20
2019-05-12T13:21:39.144Z,2.33
2019-05-12T13:22:44.678Z,2.00
2019-05-12T13:23:51.047Z,2.10
2019-05-12T13:24:58.292Z,2.50
2019-05-12T13:26:04.337Z,2.83
2019-05-12T13:27:09.946Z,3.63
2019-05-12T13:28:19.010Z,2.63
2019-05-12T13:29:28.283Z,2.50
2019-05-12T13:30:32.317Z,2.20
2019-05-12T13:31:35.767Z,1.40
2019-05-12T13:32:40.674Z,1.40
2019-05-12T13:33:49.360Z,1.53
2019-05-12T13:34:52.568Z,1.67
2019-05-12T13:35:58.135Z,1.40
2019-05-12T13:37:03.446Z,1.20
2019-05-12T13:38:08.933Z,1.30
2019-05-12T13:39:16.423Z,2.17
2019-05-12T13:40:23.257Z,2.00
2019-05-12T13:41:27.558Z,1.77
2019-05-12T13:42:35.919Z,3.30
2019-05-12T13:43:39.681Z,3.30
2019-05-12T13:44:45.245Z,2.63
2019-05-12T13:45:50.114Z,1.93
2019-05-12T13:46:58.797Z,1.60
2019-05-12T13:48:03.931Z,1.80
2019-05-12T13:49:09.249Z,1.80
2019-05-12T13:50:21.670Z,1.43
2019-05-12T13:51:24.043Z,1.30
2019-05-12T13:52:30.321Z,1.30
2019-05-12T13:53:40.317Z,1.50
2019-05-12T13:54:43.713Z,1.60
2019-05-12T13:55:49.719Z,1.73
2019-05-12T13:56:54.741Z,1.60
2019-05-12T13:58:00.266Z,2.07
2019-05-12T13:59:05.453Z,2.00
2019-05-12T14:00:11.317Z,1.47
2019-05-12T14:01:20.482Z,2.40
2019-05-12T14:02:23.957Z,2.57
2019-05-12T14:03:28.853Z,2.20
2019-05-12T14:04:34.271Z,2.10
2019-05-12T14:05:41.061Z,2.90
2019-05-12T14:06:46.338Z,2.27
2019-05-12T14:07:55.601Z,2.10
2019-05-12T14:08:59.771Z,1.73
2019-05-12T14:10:05.125Z,1.40
2019-05-12T14:11:10.545Z,3.27
2019-05-12T14:12:15.658Z,3.17
2019-05-12T14:13:21.222Z,2.77
2019-05-12T14:14:26.134Z,2.50
2019-05-12T14:15:33.889Z,2.27
2019-05-12T14:16:38.133Z,2.20
2019-05-12T14:17:43.800Z,2.10
2019-05-12T14:18:51.200Z,1.90
2019-05-12T14:19:57.052Z,3.00
2019-05-12T14:21:04.047Z,3.83
2019-05-12T14:22:12.893Z,2.80
2019-05-12T14:23:15.711Z,3.03
2019-05-12T14:24:23.436Z,3.57
2019-05-12T14:25:32.207Z,3.10
2019-05-12T14:26:39.521Z,3.43
2019-05-12T14:27:44.332Z,4.97
2019-05-12T14:28:49.716Z,5.80
2019-05-12T14:29:54.868Z,3.57
2019-05-12T14:31:00.321Z,3.20
2019-05-12T14:32:05.496Z,3.17
2019-05-12T14:33:11.004Z,3.57
2019-05-12T14:34:20.815Z,2.73
2019-05-12T14:35:23.032Z,2.90
2019-05-12T14:36:28.008Z,2.90
2019-05-12T14:37:33.642Z,2.90
2019-05-12T14:38:38.669Z,3.57
2019-05-12T14:39:46.225Z,3.43